Time;durP1;ratioP1;P1;durP2;ratioP2;P2;SDS_P1;SDS_P2;PMS_P1;PMS_P2;Temp;Humidity;BMP_temperature;BMP_pressure;BME280_temperature;BME280_humidity;BME280_pressure;Samples;Min_cycle;Max_cycle;Signal;HPM_P1;HPM_P2
2023/09/02 00:00:42;;;;;;;14.38;12.98;;;13.90;99.90;;;;;;5069350;28;20827;-81
2023/09/02 00:03:08;;;;;;;13.48;11.20;;;13.80;99.90;;;;;;5083289;28;20550;-81
2023/09/02 00:05:33;;;;;;;12.73;11.38;;;13.80;99.90;;;;;;5079095;28;20139;-81
2023/09/02 00:07:59;;;;;;;16.33;12.95;;;14.00;99.90;;;;;;5074651;28;20158;-81
2023/09/02 00:10:24;;;;;;;14.18;12.70;;;13.80;99.90;;;;;;5084404;28;20443;-81
2023/09/02 00:12:50;;;;;;;13.68;12.35;;;13.70;99.90;;;;;;5073879;28;20113;-81
2023/09/02 00:15:16;;;;;;;14.02;12.02;;;13.80;99.90;;;;;;5068518;28;20045;-81
2023/09/02 00:17:41;;;;;;;12.88;11.27;;;13.80;99.90;;;;;;5059339;28;20053;-81
2023/09/02 00:20:08;;;;;;;13.82;12.50;;;13.80;99.90;;;;;;5080639;28;20063;-81
2023/09/02 00:22:34;;;;;;;13.30;12.05;;;13.80;99.90;;;;;;5078288;28;20818;-81
2023/09/02 00:24:59;;;;;;;15.45;13.85;;;13.70;99.90;;;;;;5077153;28;20072;-81
2023/09/02 00:27:25;;;;;;;14.18;12.68;;;13.70;99.90;;;;;;5072528;28;20055;-81
2023/09/02 00:29:52;;;;;;;13.50;12.15;;;13.80;99.90;;;;;;5086462;28;20074;-81
2023/09/02 00:32:19;;;;;;;13.15;11.77;;;13.80;99.90;;;;;;5076282;28;20044;-81
2023/09/02 00:34:46;;;;;;;16.10;13.10;;;13.80;99.90;;;;;;5067667;28;20036;-81
2023/09/02 00:37:12;;;;;;;15.48;12.63;;;13.80;99.90;;;;;;5066822;28;20049;-82
2023/09/02 00:39:37;;;;;;;15.95;13.55;;;13.80;99.90;;;;;;5069802;28;20042;-81
2023/09/02 00:42:06;;;;;;;16.45;13.88;;;13.80;99.90;;;;;;5074519;28;20044;-81
2023/09/02 00:44:34;;;;;;;16.15;13.45;;;13.80;99.90;;;;;;5083809;28;21625;-82
2023/09/02 00:47:02;;;;;;;14.05;12.60;;;13.80;99.90;;;;;;5068545;28;20052;-82
2023/09/02 00:49:27;;;;;;;14.13;12.63;;;13.80;99.90;;;;;;5083962;28;20095;-82
2023/09/02 00:51:53;;;;;;;14.88;13.30;;;13.80;99.90;;;;;;5067662;28;20099;-82
2023/09/02 00:54:18;;;;;;;14.50;13.10;;;13.80;99.90;;;;;;5068100;28;20056;-82
2023/09/02 00:56:44;;;;;;;13.65;12.25;;;13.80;99.90;;;;;;5082291;28;20044;-82
2023/09/02 00:59:11;;;;;;;13.98;12.10;;;13.80;99.90;;;;;;5069369;28;20036;-82
2023/09/02 01:01:40;;;;;;;15.45;13.85;;;13.80;99.90;;;;;;5084987;28;20040;-81
2023/09/02 01:04:06;;;;;;;14.43;12.98;;;13.80;99.90;;;;;;5087770;28;20040;-81
2023/09/02 01:06:34;;;;;;;15.13;13.10;;;13.80;99.90;;;;;;5087673;28;20044;-82
2023/09/02 01:09:00;;;;;;;14.60;12.82;;;13.80;99.90;;;;;;5067281;28;20609;-81
2023/09/02 01:11:26;;;;;;;15.07;13.10;;;13.80;99.90;;;;;;5073462;28;20163;-82
2023/09/02 01:13:52;;;;;;;16.83;13.43;;;13.80;99.90;;;;;;5066705;28;20508;-82
2023/09/02 01:16:18;;;;;;;16.50;14.10;;;13.90;99.90;;;;;;5068313;28;20139;-81
2023/09/02 01:18:43;;;;;;;15.70;14.10;;;13.90;99.90;;;;;;5083675;28;20075;-82
2023/09/02 01:21:24;;;;;;;17.65;14.93;;;13.90;99.90;;;;;;5083658;28;20849;-82
2023/09/02 01:23:56;;;;;;;17.55;15.65;;;13.90;99.90;;;;;;5075466;28;20095;-82
2023/09/02 01:26:27;;;;;;;19.05;15.32;;;13.90;99.90;;;;;;5068089;28;20062;-82
2023/09/02 01:28:58;;;;;;;18.67;14.73;;;14.00;99.90;;;;;;5072482;28;20076;-83
2023/09/02 01:31:24;;;;;;;16.67;14.98;;;14.00;99.90;;;;;;5051559;28;20036;-82
2023/09/02 01:33:53;;;;;;;19.23;15.38;;;13.90;99.90;;;;;;5068921;28;20102;-82
2023/09/02 01:36:21;;;;;;;17.80;15.45;;;14.00;99.90;;;;;;5083936;28;20062;-81
2023/09/02 01:38:46;;;;;;;19.15;16.45;;;14.00;99.90;;;;;;5067602;28;20040;-82
2023/09/02 01:41:14;;;;;;;18.73;16.73;;;13.90;99.90;;;;;;5073331;28;20051;-82
2023/09/02 01:43:41;;;;;;;16.90;14.45;;;13.90;99.90;;;;;;5079800;28;20491;-82
2023/09/02 01:46:08;;;;;;;18.73;14.80;;;13.90;99.90;;;;;;5067117;28;20506;-82
2023/09/02 01:48:34;;;;;;;16.50;14.90;;;13.90;99.90;;;;;;5084376;28;20071;-81
2023/09/02 01:51:01;;;;;;;16.10;14.07;;;13.90;99.90;;;;;;5070522;28;20052;-82
2023/09/02 01:53:26;;;;;;;16.30;14.57;;;13.90;99.90;;;;;;5067645;28;20062;-82
2023/09/02 01:55:53;;;;;;;16.75;15.05;;;13.90;99.90;;;;;;5074203;28;20864;-82
2023/09/02 01:58:18;;;;;;;20.05;16.85;;;13.80;99.90;;;;;;5086183;28;20127;-82
2023/09/02 02:00:44;;;;;;;18.80;16.52;;;13.80;99.90;;;;;;5085634;28;20123;-82
2023/09/02 02:03:23;;;;;;;17.48;15.68;;;13.80;99.90;;;;;;5085255;28;20114;-82
2023/09/02 02:05:52;;;;;;;18.88;16.88;;;13.80;99.90;;;;;;5090065;28;20062;-81
2023/09/02 02:08:45;;;;;;;20.13;17.02;;;13.80;99.90;;;;;;5084438;28;20098;-82
2023/09/02 02:11:13;;;;;;;19.33;17.23;;;13.80;99.90;;;;;;5083937;28;20060;-82
2023/09/02 02:13:38;;;;;;;21.98;17.45;;;13.80;99.90;;;;;;5069374;28;20507;-81
2023/09/02 02:16:05;;;;;;;21.20;17.70;;;13.90;99.90;;;;;;5087548;28;20105;-82
2023/09/02 02:18:31;;;;;;;23.88;18.27;;;13.90;99.90;;;;;;5075155;28;20119;-82
2023/09/02 02:21:08;;;;;;;22.63;19.88;;;13.90;99.90;;;;;;5088597;28;20131;-82
2023/09/02 02:23:33;;;;;;;22.05;18.05;;;13.90;99.90;;;;;;5079120;28;20127;-81
2023/09/02 02:26:04;;;;;;;20.83;18.63;;;13.90;99.90;;;;;;5070707;28;20774;-82
2023/09/02 02:28:30;;;;;;;20.80;17.95;;;13.90;99.90;;;;;;5079968;28;20040;-82
2023/09/02 02:30:57;;;;;;;21.05;17.65;;;13.90;99.90;;;;;;5091660;28;20052;-82
2023/09/02 02:33:23;;;;;;;20.08;17.77;;;13.90;99.90;;;;;;5080882;28;20036;-82
2023/09/02 02:35:48;;;;;;;21.50;18.50;;;13.80;99.90;;;;;;5070954;28;20101;-81
2023/09/02 02:38:14;;;;;;;19.33;17.25;;;14.20;99.90;;;;;;5070439;28;20456;-82
2023/09/02 02:40:40;;;;;;;23.80;18.35;;;13.80;99.90;;;;;;5071350;28;20049;-82
2023/09/02 02:43:05;;;;;;;18.67;16.67;;;13.80;99.90;;;;;;5075724;28;20051;-81
2023/09/02 02:45:31;;;;;;;20.85;17.35;;;13.80;99.90;;;;;;5071138;28;20052;-82
2023/09/02 02:47:57;;;;;;;20.77;17.83;;;13.80;99.90;;;;;;5069827;28;20041;-81
2023/09/02 02:50:23;;;;;;;19.92;17.88;;;13.80;99.90;;;;;;5069093;28;20506;-82
2023/09/02 02:52:52;;;;;;;20.92;18.73;;;14.00;99.90;;;;;;5056745;28;20059;-82
2023/09/02 02:55:18;;;;;;;21.90;18.00;;;13.80;99.90;;;;;;5076170;28;20051;-82
2023/09/02 02:57:47;;;;;;;21.48;19.13;;;13.80;99.90;;;;;;5073970;28;20036;-82
2023/09/02 03:00:13;;;;;;;20.92;18.67;;;13.80;99.90;;;;;;5072257;28;20032;-82
2023/09/02 03:02:39;;;;;;;20.85;18.67;;;13.80;99.90;;;;;;5068587;28;20059;-82
2023/09/02 03:05:05;;;;;;;19.92;17.92;;;13.80;99.90;;;;;;5071138;28;20045;-82
2023/09/02 03:07:30;;;;;;;20.52;18.08;;;13.80;99.90;;;;;;5073531;28;20044;-82
2023/09/02 03:09:56;;;;;;;20.60;17.95;;;13.80;99.90;;;;;;5086053;28;20048;-81
2023/09/02 03:12:22;;;;;;;22.05;19.13;;;13.80;99.90;;;;;;5084611;28;20062;-82
2023/09/02 03:14:49;;;;;;;19.52;17.45;;;13.80;99.90;;;;;;5071295;28;20113;-82
2023/09/02 03:17:20;;;;;;;21.45;19.02;;;13.70;99.90;;;;;;5079486;28;20050;-81
2023/09/02 03:19:47;;;;;;;21.47;19.27;;;13.70;99.90;;;;;;5065023;28;20055;-82
2023/09/02 03:22:13;;;;;;;20.08;17.67;;;13.70;99.90;;;;;;5089191;28;20286;-82
2023/09/02 03:24:38;;;;;;;22.05;18.90;;;13.70;99.90;;;;;;5070398;28;20041;-82
2023/09/02 03:27:04;;;;;;;19.70;17.70;;;13.70;99.90;;;;;;5078978;28;20048;-82
2023/09/02 03:29:30;;;;;;;19.58;17.63;;;13.70;99.90;;;;;;5069696;28;20047;-82
2023/09/02 03:31:55;;;;;;;21.75;18.27;;;13.70;99.90;;;;;;5070293;28;20047;-82
2023/09/02 03:34:21;;;;;;;20.75;18.55;;;13.70;99.90;;;;;;5069411;28;20550;-81
2023/09/02 03:36:46;;;;;;;22.92;19.73;;;13.70;99.90;;;;;;5073207;28;20539;-81
2023/09/02 03:39:12;;;;;;;20.80;18.67;;;13.70;99.90;;;;;;5071997;28;20102;-82
2023/09/02 03:41:38;;;;;;;19.48;17.58;;;13.70;99.90;;;;;;5069886;28;20079;-82
2023/09/02 03:44:04;;;;;;;19.95;17.85;;;13.70;99.90;;;;;;5080200;28;20520;-82
2023/09/02 03:46:29;;;;;;;22.77;20.38;;;13.70;99.90;;;;;;5077900;28;20090;-82
2023/09/02 03:48:55;;;;;;;18.95;16.98;;;13.70;99.90;;;;;;5073072;28;20127;-82
2023/09/02 03:51:21;;;;;;;22.02;19.65;;;13.70;99.90;;;;;;5071844;28;20117;-81
2023/09/02 03:53:46;;;;;;;24.10;21.67;;;13.70;99.90;;;;;;5084622;28;20463;-82
2023/09/02 03:56:12;;;;;;;25.23;22.00;;;13.80;99.90;;;;;;5074690;28;20040;-82
2023/09/02 03:58:38;;;;;;;26.50;21.75;;;13.80;99.90;;;;;;5086134;28;20040;-81
2023/09/02 04:01:04;;;;;;;23.52;21.00;;;13.80;99.90;;;;;;5083414;28;20098;-81
2023/09/02 04:03:36;;;;;;;28.20;21.65;;;13.80;99.90;;;;;;5077598;28;20531;-81
2023/09/02 04:06:02;;;;;;;23.30;20.80;;;13.90;99.90;;;;;;5070534;28;20146;-81
2023/09/02 04:08:28;;;;;;;22.83;20.05;;;13.90;99.90;;;;;;5086182;28;20745;-81
2023/09/02 04:10:54;;;;;;;26.00;22.48;;;13.90;99.90;;;;;;5078856;28;20052;-81
2023/09/02 04:13:24;;;;;;;23.92;20.58;;;13.90;99.90;;;;;;5069025;28;20502;-81
2023/09/02 04:15:50;;;;;;;23.42;20.95;;;13.90;99.90;;;;;;5068949;28;20036;-82
2023/09/02 04:18:15;;;;;;;23.80;21.27;;;14.00;99.90;;;;;;5069777;28;20443;-81
2023/09/02 04:20:41;;;;;;;24.08;20.67;;;13.90;99.90;;;;;;5085179;28;20036;-81
2023/09/02 04:23:07;;;;;;;26.85;20.48;;;14.00;99.90;;;;;;5079725;28;20360;-80
2023/09/02 04:25:33;;;;;;;25.75;20.67;;;14.00;99.90;;;;;;5073235;28;20047;-81
2023/09/02 04:27:58;;;;;;;23.13;20.50;;;14.00;99.90;;;;;;5079146;28;20045;-81
2023/09/02 04:30:24;;;;;;;23.27;20.88;;;14.00;99.90;;;;;;5081875;28;20048;-81
2023/09/02 04:32:50;;;;;;;23.30;20.27;;;14.00;99.90;;;;;;5071224;28;20040;-82
2023/09/02 04:35:16;;;;;;;23.23;20.70;;;14.00;99.90;;;;;;5081458;28;20155;-81
2023/09/02 04:37:42;;;;;;;23.48;20.88;;;14.00;99.90;;;;;;5077652;28;20044;-81
2023/09/02 04:40:08;;;;;;;24.63;21.83;;;14.00;99.90;;;;;;5069981;28;20835;-81
2023/09/02 04:42:34;;;;;;;23.23;20.35;;;14.10;99.90;;;;;;5067333;28;20053;-81
2023/09/02 04:44:59;;;;;;;22.90;20.60;;;14.10;99.90;;;;;;5067033;28;20044;-81
2023/09/02 04:47:25;;;;;;;23.48;20.83;;;14.10;99.90;;;;;;5068200;28;20044;-81
2023/09/02 04:49:51;;;;;;;23.17;20.13;;;14.20;99.90;;;;;;5083210;28;20048;-81
2023/09/02 04:52:16;;;;;;;24.05;21.50;;;14.10;99.90;;;;;;5077161;28;20044;-81
2023/09/02 04:54:45;;;;;;;23.13;19.77;;;14.10;99.90;;;;;;5049918;28;20044;-81
2023/09/02 04:57:11;;;;;;;25.48;20.38;;;14.10;99.90;;;;;;5068004;28;20046;-81
2023/09/02 04:59:38;;;;;;;22.67;20.38;;;14.20;99.90;;;;;;5068617;28;20514;-81
2023/09/02 05:02:05;;;;;;;24.00;20.80;;;14.20;99.90;;;;;;5088197;28;20082;-81
2023/09/02 05:04:30;;;;;;;24.52;21.70;;;14.20;99.90;;;;;;5088120;28;20074;-81
2023/09/02 05:06:56;;;;;;;22.83;20.48;;;14.20;99.90;;;;;;5084539;28;20036;-81
2023/09/02 05:09:22;;;;;;;25.40;21.90;;;14.20;99.90;;;;;;5081616;28;20167;-81
2023/09/02 05:11:48;;;;;;;26.08;21.27;;;14.20;99.90;;;;;;5071690;28;20048;-81
2023/09/02 05:14:14;;;;;;;26.15;22.40;;;14.30;99.90;;;;;;5067411;28;20049;-80
2023/09/02 05:16:39;;;;;;;24.60;21.95;;;14.30;99.90;;;;;;5068702;28;20040;-81
2023/09/02 05:19:05;;;;;;;24.75;20.98;;;14.30;99.90;;;;;;5068570;28;20041;-81
2023/09/02 05:21:30;;;;;;;25.88;22.58;;;14.30;99.90;;;;;;5086514;28;20044;-81
2023/09/02 05:23:56;;;;;;;27.15;21.70;;;14.30;99.90;;;;;;5084469;28;20042;-80
2023/09/02 05:26:22;;;;;;;24.98;22.02;;;14.40;99.90;;;;;;5071277;28;20052;-81
2023/09/02 05:28:48;;;;;;;26.10;21.73;;;14.40;99.90;;;;;;5067466;28;20052;-81
2023/09/02 05:31:14;;;;;;;24.38;20.83;;;14.40;99.90;;;;;;5077878;28;20036;-81
2023/09/02 05:33:39;;;;;;;26.05;21.80;;;14.40;99.90;;;;;;5067675;28;20068;-81
2023/09/02 05:36:05;;;;;;;27.08;22.63;;;14.60;99.90;;;;;;5066735;28;20048;-80
2023/09/02 05:38:30;;;;;;;26.52;22.50;;;14.40;99.90;;;;;;5066091;28;20083;-81
2023/09/02 05:40:56;;;;;;;25.52;21.98;;;14.50;99.90;;;;;;5070783;28;20044;-81
2023/09/02 05:43:24;;;;;;;23.92;21.27;;;14.50;99.90;;;;;;5076379;28;20062;-81
2023/09/02 05:45:50;;;;;;;23.75;21.25;;;14.50;99.90;;;;;;5079622;28;20044;-81
2023/09/02 05:48:16;;;;;;;28.02;22.30;;;14.50;99.90;;;;;;5076211;28;20085;-81
2023/09/02 05:50:42;;;;;;;25.17;21.58;;;15.00;99.90;;;;;;5087228;28;20395;-81
2023/09/02 05:53:08;;;;;;;23.75;21.08;;;14.50;99.90;;;;;;5077963;28;20097;-81
2023/09/02 05:55:34;;;;;;;25.52;22.80;;;14.50;99.90;;;;;;5066752;28;20041;-81
2023/09/02 05:58:00;;;;;;;25.70;21.60;;;14.50;99.90;;;;;;5087876;28;20162;-81
2023/09/02 06:00:25;;;;;;;23.35;20.75;;;14.50;99.90;;;;;;5087470;28;20079;-81
2023/09/02 06:02:51;;;;;;;23.15;20.65;;;14.60;99.90;;;;;;5087808;28;20090;-81
2023/09/02 06:05:17;;;;;;;21.50;19.20;;;14.60;99.90;;;;;;5085417;28;20447;-81
2023/09/02 06:07:42;;;;;;;22.60;19.50;;;14.60;99.90;;;;;;5076854;28;20102;-81
2023/09/02 06:10:08;;;;;;;20.48;18.00;;;14.70;99.90;;;;;;5067779;28;20041;-81
2023/09/02 06:12:34;;;;;;;23.98;19.73;;;14.70;99.90;;;;;;5067505;28;20075;-81
2023/09/02 06:15:00;;;;;;;24.08;19.85;;;14.70;99.90;;;;;;5068927;28;20151;-81
2023/09/02 06:17:30;;;;;;;25.58;21.17;;;14.70;99.90;;;;;;5074131;28;20059;-81
2023/09/02 06:19:57;;;;;;;27.40;22.08;;;14.80;99.90;;;;;;5071322;28;20052;-81
2023/09/02 06:22:22;;;;;;;25.13;21.23;;;14.80;99.90;;;;;;5067707;28;20040;-80
2023/09/02 06:24:48;;;;;;;27.75;21.67;;;14.80;99.90;;;;;;5067164;28;20114;-81
2023/09/02 06:27:13;;;;;;;26.88;21.73;;;14.80;99.90;;;;;;5067246;28;20147;-82
2023/09/02 06:29:43;;;;;;;28.80;21.92;;;14.90;99.90;;;;;;5068088;28;20449;-82
2023/09/02 06:32:08;;;;;;;26.75;21.70;;;14.90;99.90;;;;;;5067447;28;20555;-81
2023/09/02 06:34:34;;;;;;;29.83;22.83;;;14.90;99.90;;;;;;5066179;28;20101;-81
2023/09/02 06:37:00;;;;;;;27.35;22.33;;;15.00;99.90;;;;;;5065291;28;20053;-81
2023/09/02 06:39:25;;;;;;;25.98;20.95;;;15.00;99.90;;;;;;5066021;28;20064;-82
2023/09/02 06:41:51;;;;;;;27.05;23.15;;;15.10;99.90;;;;;;5099177;28;20052;-81
2023/09/02 06:44:17;;;;;;;25.92;22.05;;;15.10;99.90;;;;;;5086861;28;20051;-81
2023/09/02 06:46:42;;;;;;;28.73;22.98;;;15.10;99.90;;;;;;5086831;28;20080;-81
2023/09/02 06:49:08;;;;;;;32.92;23.08;;;15.20;99.90;;;;;;5080301;28;20148;-81
2023/09/02 06:51:34;;;;;;;29.92;22.83;;;15.20;99.90;;;;;;5086915;28;20055;-82
2023/09/02 06:53:59;;;;;;;26.52;21.70;;;15.20;99.90;;;;;;5080326;28;20052;-82
2023/09/02 06:56:25;;;;;;;30.80;22.85;;;15.20;99.90;;;;;;5068932;28;20044;-81
2023/09/02 06:58:51;;;;;;;29.48;22.55;;;15.30;99.90;;;;;;5081995;28;20044;-81
2023/09/02 07:01:18;;;;;;;25.67;21.50;;;15.40;99.90;;;;;;5082320;28;20051;-81
2023/09/02 07:03:44;;;;;;;27.50;22.92;;;15.40;99.90;;;;;;5089612;28;20063;-82
2023/09/02 07:06:13;;;;;;;25.05;20.90;;;15.50;99.90;;;;;;5083591;28;20040;-82
2023/09/02 07:08:39;;;;;;;23.67;19.95;;;15.60;99.90;;;;;;5070655;28;20040;-82
2023/09/02 07:11:05;;;;;;;26.77;22.63;;;15.60;99.90;;;;;;5070797;28;20101;-83
2023/09/02 07:13:31;;;;;;;27.00;22.13;;;15.70;99.90;;;;;;5069456;28;20055;-82
2023/09/02 07:16:01;;;;;;;24.63;21.23;;;15.80;99.90;;;;;;5068854;28;20052;-82
2023/09/02 07:18:27;;;;;;;28.52;21.92;;;15.80;99.90;;;;;;5070581;28;20103;-82
2023/09/02 07:21:00;;;;;;;26.73;22.63;;;15.90;99.90;;;;;;5070285;28;20669;-82
2023/09/02 07:23:26;;;;;;;28.75;23.63;;;16.00;99.90;;;;;;5070458;28;20037;-82
2023/09/02 07:25:52;;;;;;;28.10;22.55;;;16.20;99.90;;;;;;5070317;28;20048;-82
2023/09/02 07:28:18;;;;;;;28.10;22.38;;;16.20;99.90;;;;;;5070194;28;20390;-82
2023/09/02 07:30:43;;;;;;;24.98;22.20;;;16.30;99.90;;;;;;5071273;28;20044;-82
2023/09/02 07:33:09;;;;;;;26.50;22.67;;;16.50;99.90;;;;;;5088788;28;20071;-82
2023/09/02 07:35:37;;;;;;;25.42;22.23;;;16.50;99.90;;;;;;5088448;28;20044;-82
2023/09/02 07:38:03;;;;;;;26.08;21.45;;;16.50;99.90;;;;;;5089200;28;20056;-82
2023/09/02 07:40:29;;;;;;;28.85;22.85;;;16.60;99.90;;;;;;5090189;28;20502;-82
2023/09/02 07:42:55;;;;;;;27.63;22.73;;;16.70;99.90;;;;;;5090555;28;20075;-82
2023/09/02 07:45:20;;;;;;;28.77;23.52;;;16.70;99.90;;;;;;5088203;28;20060;-82
2023/09/02 07:47:46;;;;;;;27.20;22.73;;;16.80;99.90;;;;;;5069044;28;20402;-82
2023/09/02 07:50:12;;;;;;;24.98;22.35;;;16.90;99.90;;;;;;5068899;28;20774;-82
2023/09/02 07:52:37;;;;;;;26.38;21.17;;;17.00;99.90;;;;;;5070019;28;20460;-82
2023/09/02 07:55:03;;;;;;;26.65;21.63;;;17.10;99.90;;;;;;5069869;28;20052;-82
2023/09/02 07:57:30;;;;;;;25.95;21.35;;;17.00;99.90;;;;;;5070850;28;20045;-80
2023/09/02 07:59:56;;;;;;;24.52;19.92;;;17.10;99.90;;;;;;5069615;28;20053;-81
2023/09/02 08:02:22;;;;;;;23.17;19.75;;;17.20;99.90;;;;;;5069274;28;20101;-79
2023/09/02 08:04:47;;;;;;;23.67;20.38;;;17.20;99.90;;;;;;5051210;28;20094;-78
2023/09/02 08:07:13;;;;;;;23.80;20.25;;;17.20;99.90;;;;;;5068146;28;20044;-79
2023/09/02 08:09:39;;;;;;;24.85;20.40;;;17.10;99.90;;;;;;5083324;28;20086;-79
2023/09/02 08:12:04;;;;;;;24.90;19.15;;;17.10;99.90;;;;;;5088136;28;20059;-78
2023/09/02 08:14:30;;;;;;;25.42;20.80;;;17.10;99.90;;;;;;5089425;28;20136;-79
2023/09/02 08:16:56;;;;;;;27.33;20.92;;;17.10;99.90;;;;;;5089500;28;20217;-78
2023/09/02 08:19:24;;;;;;;23.42;20.77;;;17.20;99.90;;;;;;5087912;28;20059;-78
2023/09/02 08:21:50;;;;;;;23.80;19.80;;;17.30;99.90;;;;;;5081717;28;20524;-79
2023/09/02 08:24:15;;;;;;;20.60;18.33;;;17.30;99.90;;;;;;5078062;28;20036;-79
2023/09/02 08:26:42;;;;;;;24.45;20.05;;;17.30;99.90;;;;;;5074190;28;20051;-79
2023/09/02 08:29:07;;;;;;;22.77;18.27;;;17.40;99.90;;;;;;5077663;28;20040;-79
2023/09/02 08:31:33;;;;;;;23.05;18.42;;;17.50;99.90;;;;;;5089549;28;20407;-79
2023/09/02 08:33:59;;;;;;;21.17;18.35;;;17.60;99.90;;;;;;5088828;28;20187;-79
2023/09/02 08:36:24;;;;;;;24.73;19.10;;;17.70;99.90;;;;;;5083359;28;20028;-79
2023/09/02 08:38:53;;;;;;;21.92;18.33;;;17.80;99.90;;;;;;5071196;28;20093;-79
2023/09/02 08:41:39;;;;;;;22.83;18.17;;;17.80;99.90;;;;;;5074771;28;20040;-79
2023/09/02 08:44:05;;;;;;;20.75;17.35;;;18.00;99.90;;;;;;5076100;28;20494;-80
2023/09/02 08:46:32;;;;;;;22.75;18.33;;;18.10;99.90;;;;;;5072317;28;20051;-80
2023/09/02 08:48:58;;;;;;;20.63;17.83;;;18.30;99.90;;;;;;5071291;28;20060;-80
2023/09/02 08:51:25;;;;;;;21.05;17.30;;;18.40;99.90;;;;;;5070692;28;20497;-81
2023/09/02 08:53:54;;;;;;;22.10;17.00;;;18.50;99.90;;;;;;5088618;28;20055;-80
2023/09/02 08:56:21;;;;;;;18.85;16.80;;;18.70;99.90;;;;;;5070978;28;20899;-81
2023/09/02 08:58:48;;;;;;;21.63;16.58;;;18.80;99.90;;;;;;5075575;28;20703;-81
2023/09/02 09:01:18;;;;;;;19.00;15.38;;;19.00;99.90;;;;;;5072954;28;20044;-81
2023/09/02 09:03:49;;;;;;;19.67;16.05;;;19.10;99.90;;;;;;5088047;28;20047;-81
2023/09/02 09:06:15;;;;;;;17.92;15.25;;;19.20;99.90;;;;;;5087947;28;20047;-81
2023/09/02 09:08:42;;;;;;;19.33;15.73;;;19.30;99.90;;;;;;5086683;28;20036;-80
2023/09/02 09:11:10;;;;;;;20.10;15.30;;;19.20;99.90;;;;;;5087327;28;20090;-81
2023/09/02 09:13:39;;;;;;;18.67;15.43;;;19.30;99.90;;;;;;5087493;28;20096;-80
2023/09/02 09:16:06;;;;;;;20.35;15.60;;;19.40;99.90;;;;;;5087383;28;20043;-81
2023/09/02 09:18:32;;;;;;;19.55;15.40;;;19.30;99.90;;;;;;5080292;28;20041;-80
2023/09/02 09:20:58;;;;;;;18.15;15.68;;;19.40;99.90;;;;;;5088523;28;20039;-81
2023/09/02 09:23:24;;;;;;;17.90;15.93;;;19.30;99.90;;;;;;5088615;28;20063;-80
2023/09/02 09:25:52;;;;;;;20.23;15.13;;;19.50;99.90;;;;;;5089141;28;20044;-81
2023/09/02 09:28:17;;;;;;;17.92;15.25;;;19.70;99.90;;;;;;5088083;28;20405;-79
2023/09/02 09:30:43;;;;;;;21.52;15.13;;;19.80;99.90;;;;;;5072525;28;20033;-81
2023/09/02 09:33:09;;;;;;;17.98;15.45;;;19.70;99.90;;;;;;5072197;28;20085;-80
2023/09/02 09:35:35;;;;;;;18.77;15.10;;;19.70;99.90;;;;;;5080509;28;20040;-81
2023/09/02 09:38:01;;;;;;;16.55;14.70;;;19.60;99.90;;;;;;5071002;28;20082;-83
2023/09/02 09:40:33;;;;;;;16.08;14.38;;;19.50;99.90;;;;;;5079525;28;20040;-80
2023/09/02 09:43:14;;;;;;;17.70;14.25;;;19.70;99.90;;;;;;5085182;28;20044;-80
2023/09/02 09:45:50;;;;;;;18.27;13.65;;;19.80;99.90;;;;;;5087911;28;20116;-79
2023/09/02 09:48:16;;;;;;;18.85;14.65;;;19.60;99.90;;;;;;5068720;28;20111;-80
2023/09/02 09:50:42;;;;;;;17.73;13.57;;;19.60;99.90;;;;;;5068005;28;20067;-80
2023/09/02 09:53:09;;;;;;;16.92;13.43;;;19.60;99.90;;;;;;5066894;28;20123;-80
2023/09/02 09:55:35;;;;;;;14.68;12.88;;;19.60;99.90;;;;;;5070992;28;20079;-81
2023/09/02 09:58:01;;;;;;;17.92;13.55;;;19.70;99.90;;;;;;5074187;28;20161;-81
2023/09/02 10:00:28;;;;;;;17.40;12.98;;;19.80;99.90;;;;;;5087712;28;20062;-82
2023/09/02 10:02:55;;;;;;;16.10;13.15;;;19.90;99.90;;;;;;5086569;28;20063;-81
2023/09/02 10:05:25;;;;;;;16.67;13.25;;;20.00;99.90;;;;;;5088159;28;20121;-81
2023/09/02 10:08:07;;;;;;;16.35;13.02;;;20.10;99.90;;;;;;5084839;28;20040;-82
2023/09/02 10:10:36;;;;;;;;;;;20.10;99.90;;;;;;5081679;28;20048;-82
2023/09/02 10:13:03;;;;;;;14.02;12.10;;;20.00;99.90;;;;;;5074503;28;19924;-81
2023/09/02 10:15:30;;;;;;;17.15;12.77;;;20.10;99.90;;;;;;5075485;28;20448;-83
2023/09/02 10:18:00;;;;;;;16.55;13.23;;;20.20;99.90;;;;;;5074586;28;20041;-82
2023/09/02 10:20:30;;;;;;;15.80;12.82;;;20.10;99.90;;;;;;5075893;28;20075;-82
2023/09/02 10:23:06;;;;;;;17.17;12.52;;;20.20;99.90;;;;;;5078139;28;20048;-83
2023/09/02 10:26:06;;;;;;;16.95;11.88;;;20.20;99.90;;;;;;5068804;28;20106;-83
2023/09/02 10:28:38;;;;;;;16.77;12.30;;;20.30;99.90;;;;;;5072895;28;20048;-83
2023/09/02 10:31:12;;;;;;;16.05;12.18;;;20.30;99.90;;;;;;5089178;28;20044;-84
2023/09/02 10:33:58;;;;;;;14.70;12.10;;;20.40;99.90;;;;;;5072491;28;20206;-83
2023/09/02 10:36:28;;;;;;;14.57;12.32;;;20.60;99.90;;;;;;5087067;28;20115;-81
2023/09/02 10:38:58;;;;;;;13.25;11.82;;;20.70;99.90;;;;;;5076731;28;20107;-81
2023/09/02 10:41:25;;;;;;;13.65;11.32;;;20.70;99.90;;;;;;5073114;28;20473;-81
2023/09/02 10:43:53;;;;;;;14.25;10.77;;;20.80;99.90;;;;;;5089394;28;20114;-81
2023/09/02 10:46:19;;;;;;;18.27;12.48;;;21.00;99.90;;;;;;5091277;28;20043;-81
2023/09/02 10:48:46;;;;;;;16.58;12.90;;;21.10;99.90;;;;;;5086694;28;20049;-80
2023/09/02 10:51:13;;;;;;;15.30;11.55;;;21.30;99.90;;;;;;5075185;28;20055;-81
2023/09/02 10:53:47;;;;;;;16.02;12.27;;;21.40;99.90;;;;;;5075301;28;20414;-81
2023/09/02 10:56:31;;;;;;;13.63;11.43;;;21.40;99.90;;;;;;5070970;28;20100;-81
2023/09/02 10:58:58;;;;;;;14.50;11.93;;;21.30;99.90;;;;;;5070495;28;20118;-80
2023/09/02 11:01:24;;;;;;;14.63;11.80;;;21.30;99.90;;;;;;5073996;28;20051;-80
2023/09/02 11:03:53;;;;;;;14.93;11.55;;;21.30;99.90;;;;;;5088642;28;20086;-81
2023/09/02 11:06:19;;;;;;;11.95;10.50;;;21.10;99.90;;;;;;5090415;28;20051;-81
2023/09/02 11:08:52;;;;;;;13.73;10.65;;;21.10;99.90;;;;;;5091065;28;20032;-81
2023/09/02 11:11:19;;;;;;;12.43;11.15;;;21.20;99.90;;;;;;5090797;28;20543;-81
2023/09/02 11:14:17;;;;;;;14.00;11.35;;;21.30;99.90;;;;;;5077458;28;20088;-82
2023/09/02 11:16:44;;;;;;;14.45;10.32;;;21.50;99.90;;;;;;5068489;28;20036;-81
2023/09/02 11:19:11;;;;;;;13.90;10.60;;;21.90;99.90;;;;;;5068185;28;20056;-81
2023/09/02 11:21:40;;;;;;;14.07;10.10;;;21.90;99.90;;;;;;5070695;28;20131;-81
2023/09/02 11:24:19;;;;;;;13.95;10.15;;;22.10;99.90;;;;;;5075057;28;20070;-81
2023/09/02 11:26:56;;;;;;;18.88;10.73;;;22.00;99.90;;;;;;5089225;28;20044;-82
2023/09/02 11:29:29;;;;;;;13.48;11.23;;;21.90;99.90;;;;;;5069089;28;20044;-82
2023/09/02 11:31:59;;;;;;;13.90;9.68;;;21.90;99.90;;;;;;5084943;28;20053;-81
2023/09/02 11:34:29;;;;;;;15.40;11.23;;;21.80;99.90;;;;;;5070122;28;20052;-82
2023/09/02 11:36:58;;;;;;;17.15;11.98;;;21.70;99.90;;;;;;5068691;28;20474;-82
2023/09/02 11:39:25;;;;;;;16.40;12.30;;;21.50;99.90;;;;;;5069933;28;20040;-82
2023/09/02 11:42:06;;;;;;;14.30;11.73;;;21.30;99.90;;;;;;5086472;28;20119;-81
2023/09/02 11:44:31;;;;;;;13.35;11.55;;;21.20;99.90;;;;;;5069937;28;20089;-81
2023/09/02 11:46:57;;;;;;;14.38;12.13;;;21.20;99.90;;;;;;5069666;28;20121;-82
2023/09/02 11:49:23;;;;;;;13.57;11.05;;;21.30;99.90;;;;;;5067950;28;20080;-81
2023/09/02 11:51:49;;;;;;;12.68;10.70;;;21.30;99.90;;;;;;5069055;28;20448;-82
2023/09/02 11:54:16;;;;;;;12.73;10.52;;;21.30;99.90;;;;;;5069395;28;20055;-81
2023/09/02 11:56:53;;;;;;;14.45;11.45;;;21.40;99.90;;;;;;5068612;28;20056;-81
2023/09/02 11:59:20;;;;;;;13.82;9.93;;;21.50;99.90;;;;;;5069724;28;20055;-81
2023/09/02 12:01:46;;;;;;;14.07;11.43;;;21.70;99.90;;;;;;5068297;28;20051;-81
2023/09/02 12:04:11;;;;;;;10.95;9.38;;;21.40;99.90;;;;;;5068985;28;20413;-80
2023/09/02 12:06:37;;;;;;;10.10;9.05;;;21.20;99.90;;;;;;5069591;28;20086;-80
2023/09/02 12:09:03;;;;;;;17.15;9.85;;;21.30;99.90;;;;;;5069943;28;20045;-80
2023/09/02 12:11:29;;;;;;;12.00;9.00;;;21.40;99.90;;;;;;5069997;28;20044;-80
2023/09/02 12:13:55;;;;;;;13.77;9.10;;;21.50;99.90;;;;;;5069343;28;20040;-80
2023/09/02 12:16:22;;;;;;;17.33;9.38;;;21.80;99.90;;;;;;5088198;28;20079;-81
2023/09/02 12:18:48;;;;;;;10.15;7.88;;;22.00;99.90;;;;;;5084355;28;20063;-79
2023/09/02 12:21:14;;;;;;;13.18;7.50;;;22.10;99.90;;;;;;5086518;28;20408;-80
2023/09/02 12:23:39;;;;;;;10.25;7.97;;;22.30;99.90;;;;;;5089633;28;20050;-81
2023/09/02 12:26:07;;;;;;;10.60;8.07;;;22.50;99.90;;;;;;5086997;28;20083;-80
2023/09/02 12:28:33;;;;;;;13.52;6.82;;;22.50;99.90;;;;;;5089360;28;20050;-81